Time;durP1;ratioP1;P1;durP2;ratioP2;P2;SDS_P1;SDS_P2;PMS_P1;PMS_P2;Temp;Humidity;BMP_temperature;BMP_pressure;BME280_temperature;BME280_humidity;BME280_pressure;Samples;Min_cycle;Max_cycle;Signal;HPM_P1;HPM_P2
2021/01/11 00:08:46;;;;;;;25.10;12.98;;;;;;;0.09;100.00;100928.58;10899436;80;21077;-79
2021/01/11 00:23:50;;;;;;;35.13;16.70;;;;;;;-0.07;100.00;100915.36;10905499;80;21732;-81
2021/01/11 00:38:55;;;;;;;44.48;24.00;;;;;;;-0.03;100.00;100892.00;10904808;80;21611;-81
2021/01/11 00:54:00;;;;;;;39.98;18.45;;;;;;;0.20;100.00;100882.62;10889799;80;21099;-78
2021/01/11 01:09:05;;;;;;;24.45;12.30;;;;;;;-0.06;100.00;100888.68;10896216;80;21131;-81
2021/01/11 01:24:10;;;;;;;31.30;16.73;;;;;;;-0.04;100.00;100898.48;10952401;80;21471;-81
2021/01/11 01:39:15;;;;;;;36.00;17.30;;;;;;;-0.17;100.00;100886.02;10595236;83;21572;-81
2021/01/11 01:54:19;;;;;;;21.12;11.63;;;;;;;-0.68;100.00;100868.78;10973439;79;21216;-78
2021/01/11 02:09:33;;;;;;;20.32;11.48;;;;;;;-0.44;100.00;100867.14;11001249;80;21474;-80
2021/01/11 02:25:10;;;;;;;22.25;12.37;;;;;;;-0.33;100.00;100868.09;10958002;80;21087;-81
2021/01/11 02:40:16;;;;;;;20.27;11.57;;;;;;;-0.35;100.00;100871.16;10989386;79;21117;-80
2021/01/11 02:55:28;;;;;;;23.50;11.90;;;;;;;-0.59;100.00;100872.81;10972520;80;21052;-81
2021/01/11 03:10:32;;;;;;;23.50;11.88;;;;;;;-0.52;100.00;100849.80;11043675;80;21112;-82
2021/01/11 03:25:39;;;;;;;27.93;12.88;;;;;;;-0.51;100.00;100832.98;10573982;84;21088;-81
2021/01/11 03:40:43;;;;;;;25.80;14.00;;;;;;;-0.54;100.00;100815.05;10904613;80;21084;-80
2021/01/11 03:55:48;;;;;;;27.98;13.75;;;;;;;-0.69;100.00;100812.55;10997829;80;21057;-81
2021/01/11 04:10:53;;;;;;;30.37;15.18;;;;;;;-0.65;100.00;100800.38;10976223;80;21062;-80
2021/01/11 04:25:57;;;;;;;32.08;16.50;;;;;;;-0.78;100.00;100784.94;10955168;80;21099;-81
2021/01/11 04:41:03;;;;;;;29.23;14.20;;;;;;;-0.82;100.00;100780.31;10951566;80;21232;-81
2021/01/11 04:56:10;;;;;;;32.17;14.67;;;;;;;-0.82;100.00;100769.18;11047955;80;21580;-81
2021/01/11 05:11:15;;;;;;;32.03;15.85;;;;;;;-0.84;100.00;100764.91;10951448;79;21109;-81
2021/01/11 05:26:20;;;;;;;32.83;16.37;;;;;;;-0.93;100.00;100749.77;10905773;79;21052;-82
2021/01/11 05:41:26;;;;;;;60.23;25.37;;;;;;;-0.97;100.00;100731.44;10898938;80;21125;-83
2021/01/11 05:56:52;;;;;;;33.00;17.00;;;;;;;-1.18;100.00;100724.80;10952177;80;21254;-82
2021/01/11 06:11:57;;;;;;;42.40;19.23;;;;;;;-1.40;100.00;100712.22;10959002;80;21227;-81
2021/01/11 06:27:15;;;;;;;45.90;21.17;;;;;;;-1.57;100.00;100726.46;10923469;80;21060;-82
2021/01/11 06:42:20;;;;;;;40.50;18.52;;;;;;;-1.60;100.00;100726.99;10916042;80;21131;-82
2021/01/11 06:57:28;;;;;;;101.07;71.80;;;;;;;-1.51;100.00;100706.12;10951401;80;21238;-79
2021/01/11 07:12:33;;;;;;;41.70;20.77;;;;;;;-1.48;100.00;100696.18;10932019;80;21127;-76
2021/01/11 07:27:37;;;;;;;66.97;30.05;;;;;;;-1.56;100.00;100685.70;10952827;80;21033;-77
2021/01/11 07:42:54;;;;;;;74.12;24.15;;;;;;;-1.51;100.00;100685.53;10976941;80;21036;-77
2021/01/11 07:58:02;;;;;;;42.43;18.90;;;;;;;-1.37;100.00;100696.70;10971027;80;21048;-79
2021/01/11 08:13:07;;;;;;;42.10;18.77;;;;;;;-1.23;100.00;100689.80;11010823;80;21071;-76
2021/01/11 08:28:12;;;;;;;49.40;21.25;;;;;;;-0.97;100.00;100697.95;10993617;80;21063;-76
2021/01/11 08:43:19;;;;;;;62.20;24.37;;;;;;;-1.11;100.00;100694.99;10985854;80;20981;-77
2021/01/11 08:58:24;;;;;;;47.35;21.82;;;;;;;-0.63;100.00;100703.68;10989377;80;21032;-76
2021/01/11 09:13:29;;;;;;;40.08;20.08;;;;;;;-0.27;100.00;100708.45;10945455;80;21051;-77
2021/01/11 09:28:34;;;;;;;51.98;22.05;;;;;;;-0.20;100.00;100710.75;10951730;80;21435;-81
2021/01/11 09:43:38;;;;;;;46.70;21.60;;;;;;;-0.04;100.00;100714.90;10526003;84;21956;-80
2021/01/11 09:58:42;;;;;;;47.40;22.90;;;;;;;-0.03;100.00;100694.66;10965136;80;21080;-75
2021/01/11 10:13:46;;;;;;;40.98;19.23;;;;;;;0.33;100.00;100686.41;10964856;80;21012;-75
2021/01/11 10:28:51;;;;;;;43.55;21.42;;;;;;;0.54;100.00;100675.28;10962049;79;21037;-76
2021/01/11 10:43:55;;;;;;;75.10;33.53;;;;;;;0.82;100.00;100669.39;10960142;80;21060;-81
2021/01/11 10:59:01;;;;;;;44.40;20.88;;;;;;;0.65;100.00;100664.91;10986928;80;21140;-80
2021/01/11 11:14:06;;;;;;;46.67;21.37;;;;;;;0.26;100.00;100644.11;10988984;80;21044;-78
2021/01/11 11:29:10;;;;;;;49.45;19.73;;;;;;;0.26;100.00;100635.08;10613992;82;21107;-76
2021/01/11 11:44:15;;;;;;;48.92;21.10;;;;;;;0.36;100.00;100635.11;10981864;80;21056;-76
2021/01/11 11:59:20;;;;;;;51.85;23.12;;;;;;;0.13;100.00;100619.23;10998094;80;21055;-77
2021/01/11 12:14:24;;;;;;;46.20;20.30;;;;;;;0.16;100.00;100607.52;10620137;83;21072;-79
2021/01/11 12:29:28;;;;;;;56.63;27.25;;;;;;;0.31;100.00;100575.09;10984197;80;21076;-79
2021/01/11 12:44:32;;;;;;;49.50;23.07;;;;;;;0.28;100.00;100566.19;10986458;80;21040;-81
2021/01/11 12:59:37;;;;;;;45.98;20.88;;;;;;;0.28;100.00;100559.28;10986745;80;21072;-77
2021/01/11 13:14:43;;;;;;;49.23;22.42;;;;;;;0.21;100.00;100552.70;10939292;80;21147;-82
2021/01/11 13:29:48;;;;;;;48.83;22.13;;;;;;;0.05;100.00;100554.20;10934738;80;21029;-81
2021/01/11 13:44:52;;;;;;;52.48;24.60;;;;;;;0.03;100.00;100552.13;10953752;80;21131;-79
2021/01/11 13:59:57;;;;;;;55.85;26.00;;;;;;;-0.08;100.00;100540.95;10949708;79;21028;-79
2021/01/11 14:15:01;;;;;;;59.08;26.52;;;;;;;-0.13;100.00;100529.54;10589215;83;21091;-78
2021/01/11 14:30:10;;;;;;;50.80;24.60;;;;;;;-0.15;100.00;100524.87;10951730;80;21092;-79
2021/01/11 14:45:15;;;;;;;54.77;24.82;;;;;;;-0.18;100.00;100519.85;10547835;84;21564;-77
2021/01/11 15:00:23;;;;;;;57.38;28.92;;;;;;;-0.11;100.00;100520.45;10954934;80;21001;-78
2021/01/11 15:15:28;;;;;;;65.22;30.32;;;;;;;-0.27;100.00;100513.31;10961344;80;21020;-80
2021/01/11 15:30:34;;;;;;;68.83;30.82;;;;;;;-0.31;100.00;100494.99;10952422;80;21012;-80
2021/01/11 15:45:39;;;;;;;;;;;;;;;-0.38;100.00;100483.26;10957472;80;21053;-80
2021/01/11 16:00:44;;;;;;;77.53;30.30;;;;;;;-0.55;100.00;100474.42;10946469;80;20203;-77
2021/01/11 16:15:52;;;;;;;80.27;34.47;;;;;;;-0.41;100.00;100464.88;10946329;80;21569;-77
2021/01/11 16:30:56;;;;;;;58.80;28.23;;;;;;;-0.31;100.00;100455.03;10938904;80;21254;-77
2021/01/11 16:46:01;;;;;;;143.95;59.30;;;;;;;-0.32;100.00;100436.59;10950299;79;21065;-75
2021/01/11 17:01:06;;;;;;;60.85;30.25;;;;;;;-0.28;100.00;100449.73;10930897;80;21037;-75
2021/01/11 17:16:10;;;;;;;68.20;31.65;;;;;;;-0.18;100.00;100423.97;10951069;80;21408;-75
2021/01/11 17:31:22;;;;;;;62.73;28.30;;;;;;;-0.18;100.00;100405.92;10965479;80;21013;-77
2021/01/11 17:46:27;;;;;;;55.40;26.42;;;;;;;-0.11;100.00;100378.59;10959476;80;21061;-77
2021/01/11 18:01:32;;;;;;;59.30;25.50;;;;;;;-0.11;100.00;100362.66;10977392;80;21036;-75
2021/01/11 18:16:40;;;;;;;47.90;22.80;;;;;;;0.16;100.00;100359.36;10584857;83;21072;-75
2021/01/11 18:31:44;;;;;;;47.95;20.15;;;;;;;0.04;100.00;100348.72;10959707;80;21499;-74
2021/01/11 18:46:54;;;;;;;73.60;36.23;;;;;;;0.18;100.00;100338.64;10979759;80;21040;-75
2021/01/11 19:01:59;;;;;;;45.08;21.35;;;;;;;0.22;100.00;100330.32;10978776;80;21037;-74
2021/01/11 19:17:04;;;;;;;55.23;27.23;;;;;;;0.30;100.00;100326.50;10976001;80;21131;-74
2021/01/11 19:32:09;;;;;;;51.35;23.45;;;;;;;0.30;100.00;100301.98;10578661;84;21068;-74
2021/01/11 19:47:15;;;;;;;54.90;24.60;;;;;;;0.06;100.00;100300.03;10985362;80;21436;-75
2021/01/11 20:02:20;;;;;;;44.47;20.37;;;;;;;0.09;100.00;100288.73;10954290;80;21447;-74
2021/01/11 20:17:28;;;;;;;53.63;25.50;;;;;;;-0.06;100.00;100257.55;10889916;80;21060;-75
2021/01/11 20:32:32;;;;;;;50.17;21.23;;;;;;;-0.23;100.00;100248.44;10455536;84;21090;-76
2021/01/11 20:47:37;;;;;;;48.00;20.57;;;;;;;-0.23;100.00;100230.39;10876055;80;21439;-76
2021/01/11 21:02:43;;;;;;;46.13;19.92;;;;;;;-0.23;100.00;100216.21;10862082;80;21531;-76
2021/01/11 21:17:52;;;;;;;46.42;20.10;;;;;;;-0.23;100.00;100186.09;10967554;80;21136;-76
2021/01/11 21:32:57;;;;;;;47.50;21.15;;;;;;;-0.29;100.00;100158.03;10964251;80;21061;-76
2021/01/11 21:48:01;;;;;;;44.55;20.05;;;;;;;-0.52;100.00;100129.40;10972323;80;21096;-75
2021/01/11 22:03:07;;;;;;;50.73;21.80;;;;;;;-0.78;100.00;100107.36;11107224;80;21056;-76
2021/01/11 22:18:12;;;;;;;38.37;19.57;;;;;;;-1.10;100.00;100087.70;10576659;83;21548;-76
2021/01/11 22:33:19;;;;;;;36.95;18.25;;;;;;;-1.35;100.00;100093.88;10599871;84;21045;-76
2021/01/11 22:48:23;;;;;;;38.98;19.00;;;;;;;-1.31;100.00;100064.98;11014040;80;21021;-76
2021/01/11 23:03:27;;;;;;;35.48;18.23;;;;;;;-1.22;100.00;100062.02;10995903;80;21116;-76
2021/01/11 23:18:31;;;;;;;38.40;17.42;;;;;;;-1.24;100.00;100036.35;11027167;79;21115;-76
2021/01/11 23:33:38;;;;;;;53.90;20.70;;;;;;;-1.06;100.00;100016.67;11031425;80;21067;-76
2021/01/11 23:48:42;;;;;;;37.03;15.57;;;;;;;-1.08;100.00;99992.75;10932253;80;21021;-76
